createdAt,value
2018-02-23T00:01:13.998Z,7.83
2018-02-23T00:03:40.393Z,9.50
2018-02-23T00:06:07.310Z,9.43
2018-02-23T00:08:33.671Z,8.87
2018-02-23T00:11:00.119Z,12.60
2018-02-23T00:16:20.159Z,13.80
2018-02-23T00:18:46.538Z,11.77
2018-02-23T00:21:12.726Z,10.40
2018-02-23T00:23:39.045Z,12.43
2018-02-23T00:26:05.238Z,14.60
2018-02-23T00:28:32.150Z,13.57
2018-02-23T00:30:58.417Z,18.27
2018-02-23T00:33:25.362Z,19.70
2018-02-23T00:35:51.771Z,16.27
2018-02-23T00:38:18.729Z,15.43
2018-02-23T00:40:45.899Z,14.80
2018-02-23T00:43:12.271Z,17.10
2018-02-23T00:45:39.115Z,16.00
2018-02-23T00:48:05.433Z,16.00
2018-02-23T00:50:31.649Z,14.47
2018-02-23T00:52:57.948Z,13.50
2018-02-23T00:55:24.215Z,15.17
2018-02-23T00:57:50.524Z,13.80
2018-02-23T01:00:16.873Z,16.20
2018-02-23T01:02:43.207Z,16.50
2018-02-23T01:05:09.516Z,13.80
2018-02-23T01:07:35.790Z,15.83
2018-02-23T01:10:02.942Z,14.70
2018-02-23T01:12:29.270Z,15.33
2018-02-23T01:14:56.531Z,15.87
2018-02-23T01:17:23.525Z,14.83
2018-02-23T01:19:49.795Z,14.10
2018-02-23T01:22:17.008Z,13.10
2018-02-23T01:24:43.210Z,11.13
2018-02-23T01:27:09.661Z,10.83
2018-02-23T01:29:36.107Z,9.53
2018-02-23T01:32:02.342Z,9.03
2018-02-23T01:34:28.797Z,9.10
2018-02-23T01:36:55.835Z,9.00
2018-02-23T01:39:23.003Z,9.73
2018-02-23T01:41:49.344Z,9.60
2018-02-23T01:44:15.562Z,10.80
2018-02-23T01:46:41.831Z,9.80
2018-02-23T01:49:08.034Z,9.17
2018-02-23T01:51:34.280Z,8.57
2018-02-23T01:54:00.561Z,8.83
2018-02-23T01:56:26.938Z,9.17
2018-02-23T01:58:53.679Z,8.67
2018-02-23T02:01:20.120Z,9.10
2018-02-23T02:03:46.401Z,9.80
2018-02-23T02:06:12.974Z,9.37
2018-02-23T02:08:39.190Z,8.20
2018-02-23T02:11:05.731Z,9.70
2018-02-23T02:13:31.956Z,8.40
2018-02-23T02:15:58.194Z,8.67
2018-02-23T02:18:24.382Z,9.70
2018-02-23T02:20:50.611Z,9.20
2018-02-23T02:23:16.915Z,8.40
2018-02-23T02:25:43.223Z,8.07
2018-02-23T02:28:10.247Z,8.80
2018-02-23T02:30:37.254Z,8.70
2018-02-23T02:33:03.551Z,9.30
2018-02-23T02:35:30.585Z,15.00
2018-02-23T02:37:57.582Z,13.77
2018-02-23T02:40:23.867Z,12.80
2018-02-23T02:42:50.920Z,11.47
2018-02-23T02:45:17.163Z,12.83
2018-02-23T02:47:43.541Z,11.70
2018-02-23T02:50:09.782Z,11.47
2018-02-23T02:52:36.783Z,10.57
2018-02-23T02:55:03.062Z,10.40
2018-02-23T02:57:30.053Z,10.10
2018-02-23T02:59:56.341Z,9.23
2018-02-23T03:02:23.283Z,9.17
2018-02-23T03:04:50.335Z,9.63
2018-02-23T03:07:16.725Z,10.27
2018-02-23T03:09:43.050Z,9.27
2018-02-23T03:12:09.375Z,9.50
2018-02-23T03:14:35.707Z,8.83
2018-02-23T03:17:02.318Z,8.80
2018-02-23T03:19:28.916Z,8.80
2018-02-23T03:21:56.032Z,10.00
2018-02-23T03:24:22.365Z,9.23
2018-02-23T03:26:49.668Z,8.93
2018-02-23T03:29:15.868Z,9.17
2018-02-23T03:31:42.846Z,8.50
2018-02-23T03:34:09.030Z,7.83
2018-02-23T03:36:36.078Z,8.53
2018-02-23T03:39:03.040Z,8.27
2018-02-23T03:41:29.287Z,9.80
2018-02-23T03:43:55.649Z,8.17
2018-02-23T03:46:21.853Z,9.70
2018-02-23T03:48:48.147Z,9.43
2018-02-23T03:51:14.361Z,9.13
2018-02-23T03:53:41.318Z,9.90
2018-02-23T03:56:07.641Z,9.67
2018-02-23T03:58:33.975Z,10.57
2018-02-23T04:01:00.999Z,9.30
2018-02-23T04:03:28.222Z,9.80
2018-02-23T04:05:54.591Z,11.57
2018-02-23T04:08:21.664Z,10.63
2018-02-23T04:10:48.041Z,11.60
2018-02-23T04:13:15.287Z,9.93
2018-02-23T04:15:42.367Z,10.50
2018-02-23T04:18:09.588Z,9.43
2018-02-23T04:20:35.945Z,9.77
2018-02-23T04:23:03.914Z,9.37
2018-02-23T04:25:30.261Z,9.50
2018-02-23T04:27:56.573Z,9.50
2018-02-23T04:30:23.588Z,9.43
2018-02-23T04:32:49.769Z,9.73
2018-02-23T04:35:16.104Z,10.10
2018-02-23T04:37:42.293Z,9.70
2018-02-23T04:40:09.352Z,9.30
2018-02-23T04:42:35.693Z,9.43
2018-02-23T04:45:01.897Z,9.30
2018-02-23T04:47:29.061Z,9.63
2018-02-23T04:49:55.311Z,9.50
2018-02-23T04:52:21.572Z,9.17
2018-02-23T04:54:47.770Z,8.77
2018-02-23T04:57:14.026Z,9.80
2018-02-23T04:59:41.059Z,9.50
2018-02-23T05:02:07.281Z,10.60
2018-02-23T05:04:33.557Z,9.93
2018-02-23T05:06:59.894Z,9.83
2018-02-23T05:09:26.267Z,10.27
2018-02-23T05:11:52.548Z,9.67
2018-02-23T05:14:19.439Z,9.40
2018-02-23T05:16:46.489Z,9.50
2018-02-23T05:19:12.836Z,10.20
2018-02-23T05:21:39.894Z,10.73
2018-02-23T05:24:06.932Z,11.23
2018-02-23T05:26:33.950Z,10.50
2018-02-23T05:29:00.373Z,10.60
2018-02-23T05:31:26.585Z,9.40
2018-02-23T05:33:52.850Z,11.07
2018-02-23T05:36:19.022Z,10.40
2018-02-23T05:38:45.318Z,10.83
2018-02-23T05:41:12.323Z,10.67
2018-02-23T05:43:38.636Z,10.07
2018-02-23T05:46:06.110Z,10.97
2018-02-23T05:48:32.547Z,11.27
2018-02-23T05:50:58.988Z,11.73
2018-02-23T05:53:25.334Z,13.50
2018-02-23T05:55:52.343Z,12.07
2018-02-23T05:58:18.575Z,13.27
2018-02-23T06:00:44.947Z,11.63
2018-02-23T06:03:11.168Z,13.27
2018-02-23T06:05:38.229Z,13.47
2018-02-23T06:08:04.427Z,13.90
2018-02-23T06:10:31.459Z,13.80
2018-02-23T06:12:58.538Z,13.97
2018-02-23T06:15:25.476Z,14.63
2018-02-23T06:17:58.521Z,13.93
2018-02-23T06:20:27.669Z,15.30
2018-02-23T06:22:53.947Z,13.30
2018-02-23T06:25:20.179Z,14.40
2018-02-23T06:27:46.462Z,13.00
2018-02-23T06:30:12.683Z,14.43
2018-02-23T06:32:45.995Z,13.50
2018-02-23T06:35:12.286Z,13.50
2018-02-23T06:37:38.551Z,13.20
2018-02-23T06:40:04.856Z,15.17
2018-02-23T06:42:31.216Z,14.93
2018-02-23T06:44:57.670Z,14.30
2018-02-23T06:47:24.339Z,12.87
2018-02-23T06:49:51.370Z,15.37
2018-02-23T06:52:18.534Z,15.23
2018-02-23T06:54:44.825Z,16.77
2018-02-23T06:57:11.005Z,17.90
2018-02-23T06:59:37.297Z,20.30
2018-02-23T07:02:04.312Z,20.87
2018-02-23T07:04:30.571Z,23.13
2018-02-23T07:06:57.720Z,22.47
2018-02-23T07:09:24.697Z,23.20
2018-02-23T07:11:51.060Z,23.90
2018-02-23T07:14:17.291Z,22.00
2018-02-23T07:16:43.482Z,21.20
2018-02-23T07:19:09.779Z,21.47
2018-02-23T07:21:36.735Z,21.60
2018-02-23T07:24:03.761Z,21.70
2018-02-23T07:26:37.978Z,22.60
2018-02-23T07:29:04.991Z,20.70
2018-02-23T07:31:31.223Z,18.13
2018-02-23T07:33:57.505Z,18.00
2018-02-23T07:36:23.825Z,19.30
2018-02-23T07:38:50.035Z,19.90
2018-02-23T07:41:17.156Z,21.13
2018-02-23T07:43:43.363Z,21.50
2018-02-23T07:46:09.580Z,20.33
2018-02-23T07:48:35.804Z,19.30
2018-02-23T07:51:02.058Z,19.50
2018-02-23T07:53:28.346Z,17.57
2018-02-23T07:55:54.647Z,16.67
2018-02-23T07:58:21.648Z,15.57
2018-02-23T08:00:47.987Z,16.30
2018-02-23T08:03:14.203Z,15.60
2018-02-23T08:05:40.564Z,16.67
2018-02-23T08:08:07.528Z,16.17
2018-02-23T08:10:33.759Z,21.07
2018-02-23T08:13:00.051Z,18.83
2018-02-23T08:15:26.665Z,15.77
2018-02-23T08:17:52.897Z,18.00
2018-02-23T08:20:19.109Z,17.50
2018-02-23T08:22:45.347Z,15.60
2018-02-23T08:25:11.637Z,14.87
2018-02-23T08:27:37.884Z,16.30
2018-02-23T08:30:04.062Z,16.80
2018-02-23T08:32:30.256Z,18.17
2018-02-23T08:34:56.527Z,18.07
2018-02-23T08:37:22.697Z,16.50
2018-02-23T08:39:48.962Z,16.43
2018-02-23T08:42:15.869Z,16.63
2018-02-23T08:44:42.033Z,18.60
2018-02-23T08:47:08.986Z,17.63
2018-02-23T08:49:36.033Z,17.20
2018-02-23T08:54:55.240Z,16.73
2018-02-23T08:57:21.493Z,17.13
2018-02-23T08:59:47.847Z,17.40
2018-02-23T09:02:14.025Z,17.60
2018-02-23T09:04:40.369Z,21.67
2018-02-23T09:07:06.639Z,18.33
2018-02-23T09:09:33.605Z,17.60
2018-02-23T09:11:59.983Z,17.83
2018-02-23T09:14:26.230Z,17.20
2018-02-23T09:16:53.231Z,17.67
2018-02-23T09:19:19.494Z,18.43
2018-02-23T09:21:45.799Z,18.63
2018-02-23T09:24:12.059Z,18.40
2018-02-23T09:26:39.244Z,17.33
2018-02-23T09:29:05.596Z,17.63
2018-02-23T09:31:31.904Z,17.43
2018-02-23T09:37:01.978Z,13.13
2018-02-23T09:39:28.237Z,18.43
2018-02-23T09:41:55.187Z,18.00
2018-02-23T09:44:21.511Z,17.63
2018-02-23T09:46:48.956Z,17.33
2018-02-23T09:49:16.012Z,17.30
2018-02-23T09:51:43.048Z,14.47
2018-02-23T09:54:10.104Z,17.90
2018-02-23T09:56:37.062Z,17.70
2018-02-23T09:59:03.300Z,15.87
2018-02-23T10:01:29.620Z,15.27
2018-02-23T10:03:55.906Z,14.93
2018-02-23T10:06:23.099Z,16.63
2018-02-23T10:08:49.420Z,15.50
2018-02-23T10:11:15.811Z,14.70
2018-02-23T10:13:42.050Z,14.60
2018-02-23T10:16:09.191Z,16.63
2018-02-23T10:18:35.392Z,16.43
2018-02-23T10:21:01.786Z,13.87
2018-02-23T10:23:28.067Z,15.70
2018-02-23T10:25:54.496Z,15.93
2018-02-23T10:28:20.782Z,16.80
2018-02-23T10:30:46.980Z,16.37
2018-02-23T10:33:14.032Z,16.40
2018-02-23T10:35:41.026Z,13.83
2018-02-23T10:38:07.494Z,15.17
2018-02-23T10:40:34.633Z,14.57
2018-02-23T10:43:02.488Z,13.47
2018-02-23T10:45:29.015Z,13.27
2018-02-23T10:47:55.748Z,15.30
2018-02-23T10:50:21.985Z,16.53
2018-02-23T10:52:48.338Z,15.80
2018-02-23T10:55:15.294Z,16.20
2018-02-23T10:57:41.637Z,84.30
2018-02-23T11:00:08.039Z,21.87
2018-02-23T11:02:35.151Z,20.00
2018-02-23T11:05:01.474Z,15.43
2018-02-23T11:07:27.708Z,14.10
2018-02-23T11:09:53.956Z,14.97
2018-02-23T11:12:21.683Z,15.53
2018-02-23T11:14:48.313Z,16.57
2018-02-23T11:17:14.689Z,16.70
2018-02-23T11:19:40.986Z,14.37
2018-02-23T11:22:07.397Z,18.37
2018-02-23T11:24:33.700Z,17.80
2018-02-23T11:26:59.998Z,20.60
2018-02-23T11:29:26.306Z,26.00
2018-02-23T11:31:52.639Z,24.37
2018-02-23T11:34:18.871Z,20.80
2018-02-23T11:36:45.871Z,19.40
2018-02-23T11:39:12.362Z,18.90
2018-02-23T11:41:38.688Z,14.00
2018-02-23T11:44:05.715Z,16.47
2018-02-23T11:46:32.245Z,14.07
2018-02-23T11:48:58.451Z,20.50
2018-02-23T11:51:24.640Z,19.40
2018-02-23T11:53:52.228Z,16.60
2018-02-23T11:56:18.593Z,21.87
2018-02-23T11:58:45.031Z,17.33
2018-02-23T12:01:13.089Z,18.53
2018-02-23T12:03:39.467Z,20.97
2018-02-23T12:06:05.788Z,19.13
2018-02-23T12:08:32.007Z,13.73
2018-02-23T12:10:59.059Z,19.57
2018-02-23T12:13:25.629Z,22.13
2018-02-23T12:15:51.977Z,19.73
2018-02-23T12:18:18.336Z,21.77
2018-02-23T12:20:45.509Z,18.90
2018-02-23T12:23:11.908Z,19.37
2018-02-23T12:25:39.173Z,20.33
2018-02-23T12:28:06.283Z,18.83
2018-02-23T12:30:32.660Z,20.53
2018-02-23T12:32:59.969Z,18.67
2018-02-23T12:35:26.232Z,17.83
2018-02-23T12:37:53.278Z,22.10
2018-02-23T12:40:20.246Z,16.43
2018-02-23T12:42:46.592Z,19.50
2018-02-23T12:45:13.015Z,17.67
2018-02-23T12:47:39.387Z,18.80
2018-02-23T12:50:06.531Z,21.30
2018-02-23T12:52:32.817Z,18.80
2018-02-23T12:54:59.091Z,18.83
2018-02-23T12:57:25.449Z,23.00
2018-02-23T12:59:52.465Z,21.70
2018-02-23T13:02:18.726Z,19.60
2018-02-23T13:04:45.774Z,18.53
2018-02-23T13:07:12.821Z,16.40
2018-02-23T13:09:39.731Z,16.60
2018-02-23T13:12:06.033Z,19.30
2018-02-23T13:14:38.431Z,19.43
2018-02-23T13:17:05.540Z,21.90
2018-02-23T13:19:31.754Z,27.80
2018-02-23T13:21:58.843Z,32.30
2018-02-23T13:24:25.063Z,20.07
2018-02-23T13:26:51.723Z,23.53
2018-02-23T13:29:18.784Z,25.83
2018-02-23T13:31:45.756Z,22.60
2018-02-23T13:34:12.046Z,26.70
2018-02-23T13:36:39.151Z,20.10
2018-02-23T13:39:05.457Z,22.27
2018-02-23T13:41:37.876Z,26.57
2018-02-23T13:44:04.504Z,24.37
2018-02-23T13:46:31.758Z,20.47
2018-02-23T13:48:58.153Z,23.20
2018-02-23T13:51:24.612Z,24.50
2018-02-23T13:53:51.370Z,19.83
2018-02-23T13:56:18.605Z,21.63
2018-02-23T13:58:44.966Z,20.20
2018-02-23T14:01:12.147Z,24.53
2018-02-23T14:03:38.591Z,29.57
2018-02-23T14:06:05.979Z,21.03
2018-02-23T14:08:32.298Z,23.70
2018-02-23T14:10:58.873Z,20.30
2018-02-23T14:13:26.292Z,22.30
2018-02-23T14:15:52.623Z,20.30
2018-02-23T14:18:19.867Z,21.47
2018-02-23T14:20:46.107Z,22.00
2018-02-23T14:23:13.893Z,19.80
2018-02-23T14:25:41.140Z,19.80
2018-02-23T14:28:08.359Z,18.47
2018-02-23T14:30:34.972Z,20.03
2018-02-23T14:33:01.527Z,17.77
2018-02-23T14:35:28.027Z,19.40
2018-02-23T14:37:54.489Z,20.43
2018-02-23T14:40:20.698Z,20.10
2018-02-23T14:42:47.796Z,20.27
2018-02-23T14:45:15.185Z,21.57
2018-02-23T14:47:41.441Z,19.40
2018-02-23T14:50:20.178Z,19.83
2018-02-23T14:52:46.570Z,18.27
2018-02-23T14:55:13.072Z,19.63
2018-02-23T14:57:40.520Z,19.57
2018-02-23T15:00:07.572Z,16.53
2018-02-23T15:02:34.725Z,18.73
2018-02-23T15:05:01.851Z,18.10
2018-02-23T15:07:29.035Z,19.83
2018-02-23T15:09:55.817Z,18.80
2018-02-23T15:12:22.176Z,18.30
2018-02-23T15:14:48.756Z,15.97
2018-02-23T15:17:15.052Z,20.70
2018-02-23T15:19:42.338Z,20.10
2018-02-23T15:22:08.756Z,18.50
2018-02-23T15:24:35.119Z,23.57
2018-02-23T15:27:01.386Z,20.20
2018-02-23T15:29:28.624Z,18.63
2018-02-23T15:34:58.027Z,19.77
2018-02-23T15:37:24.449Z,19.23
2018-02-23T15:39:50.783Z,17.00
2018-02-23T15:42:17.223Z,17.40
2018-02-23T15:44:43.611Z,17.17
2018-02-23T15:47:10.957Z,17.83
2018-02-23T15:49:38.283Z,19.97
2018-02-23T15:52:10.444Z,20.70
2018-02-23T15:54:37.469Z,20.67
2018-02-23T15:57:04.159Z,19.27
2018-02-23T15:59:30.420Z,19.80
2018-02-23T16:01:57.069Z,19.07
2018-02-23T16:04:23.355Z,19.20
2018-02-23T16:06:49.661Z,19.10
2018-02-23T16:09:16.660Z,17.03
2018-02-23T16:11:42.915Z,18.40
2018-02-23T16:14:09.929Z,18.50
2018-02-23T16:16:36.123Z,17.97
2018-02-23T16:19:02.489Z,18.60
2018-02-23T16:21:28.805Z,15.53
2018-02-23T16:23:55.893Z,19.03
2018-02-23T16:26:23.074Z,18.83
2018-02-23T16:28:50.435Z,18.07
2018-02-23T16:31:16.686Z,18.80
2018-02-23T16:33:42.884Z,17.93
2018-02-23T16:36:09.520Z,18.87
2018-02-23T16:38:35.880Z,18.87
2018-02-23T16:41:02.995Z,17.30
2018-02-23T16:43:29.310Z,16.87
2018-02-23T16:45:55.657Z,17.00
2018-02-23T16:48:22.002Z,18.10
2018-02-23T16:50:48.258Z,19.33
2018-02-23T16:53:14.463Z,17.87
2018-02-23T16:55:40.801Z,17.53
2018-02-23T16:58:07.108Z,18.87
2018-02-23T17:00:33.526Z,17.70
2018-02-23T17:02:59.754Z,17.20
2018-02-23T17:05:26.070Z,17.80
2018-02-23T17:07:52.390Z,18.93
2018-02-23T17:10:20.431Z,18.20
2018-02-23T17:12:47.912Z,18.53
2018-02-23T17:15:14.229Z,18.17
2018-02-23T17:17:41.324Z,17.20
2018-02-23T17:20:07.979Z,17.10
2018-02-23T17:22:34.581Z,18.03
2018-02-23T17:25:07.933Z,16.00
2018-02-23T17:27:34.401Z,18.47
2018-02-23T17:30:00.767Z,17.90
2018-02-23T17:32:27.161Z,18.87
2018-02-23T17:34:53.623Z,19.30
2018-02-23T17:37:19.974Z,17.93
2018-02-23T17:39:47.240Z,17.80
2018-02-23T17:42:14.301Z,18.80
2018-02-23T17:44:42.229Z,21.50
2018-02-23T17:47:08.611Z,20.77
2018-02-23T17:49:35.094Z,19.80
2018-02-23T17:52:02.423Z,18.80
2018-02-23T17:54:28.860Z,19.70
2018-02-23T17:56:55.344Z,19.57
2018-02-23T17:59:23.192Z,20.30
2018-02-23T18:01:49.918Z,19.93
2018-02-23T18:04:16.443Z,19.37
2018-02-23T18:06:43.925Z,18.50
2018-02-23T18:09:11.574Z,20.40
2018-02-23T18:11:38.640Z,19.77
2018-02-23T18:14:05.763Z,22.17
2018-02-23T18:16:33.017Z,20.83
2018-02-23T18:19:00.194Z,18.07
2018-02-23T18:21:27.225Z,20.57
2018-02-23T18:23:54.754Z,18.23
2018-02-23T18:26:21.414Z,18.83
2018-02-23T18:28:48.556Z,19.23
2018-02-23T18:31:15.077Z,16.77
2018-02-23T18:33:42.397Z,15.33
2018-02-23T18:36:09.571Z,16.63
2018-02-23T18:38:35.851Z,16.53
2018-02-23T18:41:03.023Z,16.27
2018-02-23T18:43:29.380Z,16.67
2018-02-23T18:45:55.935Z,18.87
2018-02-23T18:48:23.081Z,19.10
2018-02-23T18:50:49.664Z,21.23
2018-02-23T18:53:17.253Z,16.50
2018-02-23T18:55:43.695Z,17.97
2018-02-23T18:58:11.075Z,16.70
2018-02-23T19:00:38.199Z,16.27
2018-02-23T19:03:04.478Z,15.57
2018-02-23T19:05:31.169Z,14.73
2018-02-23T19:07:57.507Z,14.70
2018-02-23T19:10:24.021Z,14.80
2018-02-23T19:12:50.551Z,14.90
2018-02-23T19:15:17.041Z,15.93
2018-02-23T19:17:43.730Z,17.97
2018-02-23T19:20:11.033Z,18.77
2018-02-23T19:22:37.625Z,16.60
2018-02-23T19:25:04.825Z,16.97
2018-02-23T19:27:31.047Z,15.13
2018-02-23T19:29:57.590Z,15.40
2018-02-23T19:32:24.464Z,15.50
2018-02-23T19:34:50.899Z,15.33
2018-02-23T19:37:17.314Z,14.90
2018-02-23T19:39:43.749Z,15.93
2018-02-23T19:42:10.197Z,14.13
2018-02-23T19:44:36.519Z,15.80
2018-02-23T19:47:03.018Z,15.00
2018-02-23T19:49:29.515Z,14.67
2018-02-23T19:51:56.739Z,13.20
2018-02-23T19:54:23.146Z,14.33
2018-02-23T19:56:49.677Z,15.77
2018-02-23T19:59:16.163Z,15.73
2018-02-23T20:01:43.355Z,14.63
2018-02-23T20:04:10.122Z,12.73
2018-02-23T20:06:36.660Z,15.30
2018-02-23T20:09:03.590Z,14.37
2018-02-23T20:11:29.979Z,15.47
2018-02-23T20:13:56.672Z,13.80
2018-02-23T20:16:24.686Z,14.30
2018-02-23T20:18:51.267Z,14.47
2018-02-23T20:21:17.527Z,14.97
2018-02-23T20:23:44.637Z,15.27
2018-02-23T20:26:11.187Z,13.70
2018-02-23T20:28:38.194Z,15.60
2018-02-23T20:31:04.623Z,17.30
2018-02-23T20:33:30.979Z,16.53
2018-02-23T20:35:59.288Z,14.97
2018-02-23T20:38:27.436Z,15.90
2018-02-23T20:40:53.672Z,14.47
2018-02-23T20:43:20.735Z,15.93
2018-02-23T20:45:47.616Z,15.90
2018-02-23T20:48:14.020Z,14.73
2018-02-23T20:50:40.364Z,14.93
2018-02-23T20:53:07.356Z,15.53
2018-02-23T20:55:34.497Z,14.90
2018-02-23T20:58:01.227Z,15.67
2018-02-23T21:00:27.810Z,13.93
2018-02-23T21:02:54.230Z,12.20
2018-02-23T21:05:20.861Z,14.53
2018-02-23T21:07:48.075Z,15.30
2018-02-23T21:10:14.537Z,13.67
2018-02-23T21:12:41.706Z,14.97
2018-02-23T21:15:08.196Z,15.33
2018-02-23T21:17:34.631Z,15.53
2018-02-23T21:20:07.861Z,16.00
2018-02-23T21:22:34.183Z,16.37
2018-02-23T21:25:01.982Z,21.73
2018-02-23T21:27:28.356Z,31.37
2018-02-23T21:29:55.600Z,26.57
2018-02-23T21:32:21.951Z,26.00
2018-02-23T21:34:48.906Z,22.87
2018-02-23T21:37:15.161Z,21.80
2018-02-23T21:39:41.466Z,20.70
2018-02-23T21:42:07.880Z,20.10
2018-02-23T21:44:46.354Z,19.50
2018-02-23T21:47:12.562Z,18.90
2018-02-23T21:49:38.923Z,19.10
2018-02-23T21:52:05.142Z,19.60
2018-02-23T21:54:31.513Z,19.10
2018-02-23T21:56:58.506Z,18.10
2018-02-23T21:59:24.804Z,19.67
2018-02-23T22:01:51.090Z,20.80
2018-02-23T22:04:17.406Z,20.57
2018-02-23T22:06:43.993Z,19.80
2018-02-23T22:09:17.350Z,16.90
2018-02-23T22:11:44.528Z,17.10
2018-02-23T22:14:11.005Z,19.33
2018-02-23T22:16:37.267Z,19.43
2018-02-23T22:19:04.222Z,21.80
2018-02-23T22:21:31.424Z,19.70
2018-02-23T22:23:57.749Z,20.83
2018-02-23T22:26:24.153Z,17.57
2018-02-23T22:28:50.542Z,19.23
2018-02-23T22:31:17.594Z,20.77
2018-02-23T22:33:44.675Z,18.73
2018-02-23T22:36:11.085Z,20.40
2018-02-23T22:38:38.256Z,19.17
2018-02-23T22:41:04.633Z,19.27
2018-02-23T22:43:30.945Z,19.17
2018-02-23T22:45:57.276Z,20.80
2018-02-23T22:48:23.511Z,35.10
2018-02-23T22:50:50.157Z,49.60
2018-02-23T22:53:16.628Z,36.83
2018-02-23T22:55:42.872Z,31.47
2018-02-23T22:58:09.209Z,26.60
2018-02-23T23:00:35.782Z,22.20
2018-02-23T23:03:02.949Z,21.30
2018-02-23T23:05:29.269Z,19.60
2018-02-23T23:07:56.418Z,20.40
2018-02-23T23:10:23.463Z,19.77
2018-02-23T23:12:50.476Z,19.27
2018-02-23T23:15:16.810Z,19.60
2018-02-23T23:17:43.009Z,20.80
2018-02-23T23:20:09.339Z,19.83
2018-02-23T23:22:35.576Z,21.97
2018-02-23T23:25:01.805Z,19.50
2018-02-23T23:27:28.151Z,20.47
2018-02-23T23:29:54.604Z,19.07
2018-02-23T23:32:21.717Z,19.67
2018-02-23T23:34:47.913Z,18.30
2018-02-23T23:37:14.269Z,20.07
2018-02-23T23:39:40.554Z,19.50
2018-02-23T23:42:06.962Z,21.27
2018-02-23T23:44:33.882Z,20.63
2018-02-23T23:47:00.313Z,21.10
2018-02-23T23:49:26.741Z,20.17
2018-02-23T23:51:53.017Z,19.03
2018-02-23T23:54:19.296Z,19.40
2018-02-23T23:56:45.565Z,19.37
2018-02-23T23:59:11.796Z,19.43
